Turbat Weather



Turbat's Current Weather

Temprature 32.45o clear sky

clear sky

Rain: 0 %

Min Temprature32.45o
Max Temprature32.45o
Humidity32
Wind Speed1.05 m/h
Sun Rise05:58:13
Sun Set19:31:22
Current Time: 24-May-2022 07:36:20
Lat/Lon: 26.0023, 63.044




Turbat's Geo Location



Turbat's Weather Forecast

Time Overall Temp Min Temp Max Temp Humidity Wind Speed Rain
24-May-2022 (Tue)
08:00:00 clear sky 32.450 32.450 32.450 32 1.05 m/h 0 %
11:00:00 clear sky 34.280 34.280 37.930 27 2.58 m/h 0 %
14:00:00 clear sky 39.310 39.310 42.740 18 4.39 m/h 0 %
17:00:00 clear sky 41.820 41.820 41.820 19 8.8 m/h 0 %
20:00:00 clear sky 33.900 33.900 33.900 43 5.41 m/h 0 %
23:00:00 clear sky 32.090 32.090 32.090 48 1.95 m/h 0 %
25-May-2022 (Wed)
02:00:00 clear sky 29.920 29.920 29.920 60 1.62 m/h 0 %
05:00:00 clear sky 28.510 28.510 28.510 66 1.4 m/h 0 %
08:00:00 clear sky 29.550 29.550 29.550 60 1.72 m/h 0 %
11:00:00 clear sky 36.140 36.140 36.140 30 4.08 m/h 0 %
14:00:00 clear sky 41.570 41.570 41.570 19 6.41 m/h 0 %
17:00:00 clear sky 38.080 38.080 38.080 33 8.96 m/h 0 %
20:00:00 clear sky 31.750 31.750 31.750 56 5.91 m/h 0 %
23:00:00 clear sky 29.480 29.480 29.480 68 2.85 m/h 0 %
26-May-2022 (Thu)
02:00:00 clear sky 28.040 28.040 28.040 77 2.01 m/h 0 %
05:00:00 clear sky 27.010 27.010 27.010 82 1.56 m/h 0 %
08:00:00 clear sky 28.100 28.100 28.100 73 1.17 m/h 0 %
11:00:00 clear sky 34.830 34.830 34.830 39 3.21 m/h 0 %
14:00:00 clear sky 40.980 40.980 40.980 22 5.36 m/h 0 %
17:00:00 clear sky 42.140 42.140 42.140 20 8.3 m/h 0 %
20:00:00 clear sky 34.530 34.530 34.530 44 6.05 m/h 0 %
23:00:00 clear sky 32.050 32.050 32.050 51 2.47 m/h 0 %
27-May-2022 (Fri)
02:00:00 clear sky 30.210 30.210 30.210 54 2.68 m/h 0 %
05:00:00 clear sky 28.430 28.430 28.430 61 0.57 m/h 0 %
08:00:00 clear sky 30.310 30.310 30.310 52 1.08 m/h 0 %
11:00:00 clear sky 37.110 37.110 37.110 26 1.74 m/h 0 %
14:00:00 clear sky 42.490 42.490 42.490 15 3.94 m/h 0 %
17:00:00 clear sky 43.700 43.700 43.700 11 7.53 m/h 0 %
20:00:00 clear sky 34.200 34.200 34.200 43 4.95 m/h 0 %
23:00:00 clear sky 32.440 32.440 32.440 47 1.92 m/h 0 %
28-May-2022 (Sat)
02:00:00 clear sky 30.930 30.930 30.930 50 1.82 m/h 0 %
05:00:00 clear sky 30.370 30.370 30.370 39 1.64 m/h 0 %
08:00:00 clear sky 35.650 35.650 35.650 14 2.33 m/h 0 %
11:00:00 clear sky 42.120 42.120 42.120 7 0.57 m/h 0 %
14:00:00 clear sky 45.090 45.090 45.090 6 5.14 m/h 0 %
17:00:00 clear sky 42.640 42.640 42.640 17 9.13 m/h 0 %
20:00:00 clear sky 36.020 36.020 36.020 32 2.81 m/h 0 %
23:00:00 clear sky 33.150 33.150 33.150 42 1.36 m/h 0 %
29-May-2022 (Sun)
02:00:00 clear sky 31.530 31.530 31.530 41 1.6 m/h 0 %
05:00:00 clear sky 30.140 30.140 30.140 32 0.4 m/h 0 %

Famous Cities (61)